Time;durP1;ratioP1;P1;durP2;ratioP2;P2;SDS_P1;SDS_P2;PMS_P1;PMS_P2;Temp;Humidity;BMP_temperature;BMP_pressure;BME280_temperature;BME280_humidity;BME280_pressure;Samples;Min_cycle;Max_cycle;Signal;HPM_P1;HPM_P2
2024/03/04 00:03:21;;;;;;;39.70;24.73;;;;;;;8.12;100.00;99963.48;4934788;58;1140687;-74
2024/03/04 00:08:28;;;;;;;50.27;27.57;;;;;;;8.12;100.00;99962.17;4953308;58;1140811;-72
2024/03/04 00:13:33;;;;;;;50.30;29.03;;;;;;;8.08;100.00;99966.02;4961862;57;1140991;-76
2024/03/04 00:18:40;;;;;;;45.83;27.15;;;;;;;8.06;100.00;99971.39;4961459;57;1140952;-73
2024/03/04 00:23:46;;;;;;;52.43;25.87;;;;;;;8.06;100.00;99970.55;4962204;57;1140875;-73
2024/03/04 00:28:51;;;;;;;47.00;24.43;;;;;;;8.03;100.00;99961.09;4929205;58;1141005;-73
2024/03/04 00:33:57;;;;;;;49.63;28.23;;;;;;;8.02;100.00;99962.52;4890627;58;1140784;-75
2024/03/04 00:39:03;;;;;;;51.05;27.95;;;;;;;7.99;100.00;99957.00;4890821;59;1140661;-71
2024/03/04 00:44:10;;;;;;;41.60;23.60;;;;;;;7.97;100.00;99964.17;4909549;58;1140773;-72
2024/03/04 00:49:16;;;;;;;52.90;29.73;;;;;;;7.97;100.00;99962.85;4890714;59;1140842;-73
2024/03/04 00:54:22;;;;;;;53.93;29.30;;;;;;;7.89;100.00;99967.03;4890522;58;1140829;-75
2024/03/04 00:59:30;;;;;;;52.50;27.67;;;;;;;7.81;100.00;99975.49;4916830;58;1140655;-71
2024/03/04 01:04:35;;;;;;;47.33;26.07;;;;;;;7.78;100.00;99969.64;4969125;58;1140812;-74
2024/03/04 01:09:42;;;;;;;53.07;31.47;;;;;;;7.73;100.00;99966.02;4970277;58;1140904;-72
2024/03/04 01:14:47;;;;;;;52.70;30.17;;;;;;;7.65;100.00;99958.69;4889598;59;1140599;-75
2024/03/04 01:19:53;;;;;;;56.63;30.10;;;;;;;7.60;100.00;99967.89;4988901;58;1147723;-73
2024/03/04 01:25:00;;;;;;;50.85;30.17;;;;;;;7.62;100.00;99965.99;4810315;59;1149132;-70
2024/03/04 01:30:09;;;;;;;56.75;31.70;;;;;;;7.63;100.00;99967.67;4905533;58;1140546;-71
2024/03/04 01:35:15;;;;;;;51.63;31.10;;;;;;;7.64;100.00;99964.06;4904209;59;1140550;-75
2024/03/04 01:40:21;;;;;;;50.83;28.80;;;;;;;7.61;100.00;99966.47;4890652;59;1140747;-71
2024/03/04 01:45:28;;;;;;;58.77;31.63;;;;;;;7.62;100.00;99974.73;4890551;58;1140830;-75
2024/03/04 01:50:36;;;;;;;65.37;35.53;;;;;;;7.61;100.00;99966.95;4909760;59;1140726;-72
2024/03/04 01:55:46;;;;;;;57.57;31.10;;;;;;;7.60;100.00;99968.73;4890897;59;1140749;-75
2024/03/04 02:00:54;;;;;;;49.70;28.23;;;;;;;7.58;100.00;99967.16;4925556;58;1145994;-71
2024/03/04 02:06:01;;;;;;;55.12;32.50;;;;;;;7.60;100.00;99975.79;4970576;58;1140523;-74
2024/03/04 02:11:08;;;;;;;63.73;33.57;;;;;;;7.60;100.00;99976.63;4990907;58;1140979;-75
2024/03/04 02:16:14;;;;;;;58.77;31.87;;;;;;;7.61;100.00;99982.73;4991790;57;1140430;-71
2024/03/04 02:21:22;;;;;;;62.10;33.20;;;;;;;7.58;100.00;99980.32;4837125;59;1140789;-73
2024/03/04 02:26:28;;;;;;;66.27;34.80;;;;;;;7.59;100.00;99984.16;4989439;58;1140944;-73
2024/03/04 02:31:34;;;;;;;60.50;32.90;;;;;;;7.57;100.00;99978.16;4969578;58;1140961;-75
2024/03/04 02:36:40;;;;;;;50.03;29.37;;;;;;;7.52;100.00;99988.66;4889365;59;1140918;-73
2024/03/04 02:41:46;;;;;;;51.13;28.47;;;;;;;7.46;100.00;99987.81;4972729;58;1141156;-75
2024/03/04 02:46:52;;;;;;;57.87;29.50;;;;;;;7.39;100.00;99984.77;4989340;58;1140602;-73
2024/03/04 02:51:57;;;;;;;45.43;25.70;;;;;;;7.34;100.00;99989.52;4890154;59;1140734;-71
2024/03/04 02:57:04;;;;;;;42.10;25.02;;;;;;;7.33;100.00;99987.86;4970039;58;1140825;-72
2024/03/04 03:02:09;;;;;;;52.50;28.52;;;;;;;7.30;100.00;99985.45;4909201;59;1140945;-75
2024/03/04 03:07:15;;;;;;;44.40;24.70;;;;;;;7.23;100.00;99991.62;4941214;58;1140731;-73
2024/03/04 03:12:21;;;;;;;49.03;25.87;;;;;;;7.14;100.00;99990.98;4880691;58;1140762;-71
2024/03/04 03:17:27;;;;;;;42.57;23.63;;;;;;;7.06;100.00;99986.72;4956428;58;1140941;-71
2024/03/04 03:22:33;;;;;;;46.07;24.23;;;;;;;7.01;100.00;100002.84;4962876;58;1140724;-71
2024/03/04 03:27:40;;;;;;;52.27;26.90;;;;;;;6.98;100.00;100005.69;4962643;58;1142844;-71
2024/03/04 03:32:46;;;;;;;44.05;24.80;;;;;;;6.90;100.00;99996.17;4977915;58;1143110;-74
2024/03/04 03:37:52;;;;;;;41.07;24.27;;;;;;;6.86;100.00;100011.82;4982797;58;1139089;-72
2024/03/04 03:42:57;;;;;;;48.63;24.53;;;;;;;6.75;100.00;100006.45;4960459;58;1142620;-74
2024/03/04 03:48:03;;;;;;;49.67;25.23;;;;;;;6.73;100.00;99999.62;4880818;59;1142709;-73
2024/03/04 03:53:09;;;;;;;41.05;23.77;;;;;;;6.69;100.00;99998.55;4899943;58;1141066;-73
2024/03/04 03:58:14;;;;;;;49.27;24.83;;;;;;;6.64;100.00;99995.39;4885937;58;1140744;-74
2024/03/04 04:03:21;;;;;;;45.70;22.40;;;;;;;6.58;100.00;100005.47;4960006;57;1140852;-74
2024/03/04 04:08:27;;;;;;;43.00;24.17;;;;;;;6.56;100.00;100006.92;5003354;57;1142792;-73
2024/03/04 04:13:32;;;;;;;43.60;24.10;;;;;;;6.55;100.00;100007.86;4932364;57;1142945;-71
2024/03/04 04:18:38;;;;;;;46.77;25.57;;;;;;;6.53;100.00;100003.18;5010834;57;1143401;-70
2024/03/04 04:23:44;;;;;;;48.43;26.37;;;;;;;6.49;100.00;100009.58;5038664;57;1142843;-70
2024/03/04 04:28:49;;;;;;;44.93;25.03;;;;;;;6.41;100.00;100010.59;5023816;57;1140923;-72
2024/03/04 04:33:55;;;;;;;48.23;24.50;;;;;;;6.33;100.00;100003.70;4951803;57;1142706;-73
2024/03/04 04:39:00;;;;;;;41.13;23.50;;;;;;;6.31;100.00;100013.46;4962329;58;1142771;-70
2024/03/04 04:44:06;;;;;;;47.43;23.50;;;;;;;6.29;100.00;100010.94;4942966;58;1142816;-72
2024/03/04 04:49:12;;;;;;;41.83;25.02;;;;;;;6.25;100.00;100011.27;4971049;57;1143032;-70
2024/03/04 04:54:18;;;;;;;46.00;22.83;;;;;;;6.22;100.00;100012.78;5043363;57;1140818;-73
2024/03/04 04:59:23;;;;;;;48.57;23.73;;;;;;;6.13;100.00;100013.39;4998949;57;1140584;-73
2024/03/04 05:04:29;;;;;;;44.18;23.80;;;;;;;6.04;100.00;100019.27;4961617;57;1142885;-73
2024/03/04 05:09:34;;;;;;;40.50;22.57;;;;;;;6.03;100.00;100025.45;4912420;57;1143113;-72
2024/03/04 05:14:40;;;;;;;44.37;22.23;;;;;;;5.96;100.00;100034.20;4857482;57;1142835;-70
2024/03/04 05:19:46;;;;;;;51.33;24.93;;;;;;;5.88;100.00;100053.53;4859823;58;1143030;-73
2024/03/04 05:24:51;;;;;;;36.77;21.83;;;;;;;5.88;100.00;100053.53;4856200;58;1143116;-73
2024/03/04 05:29:57;;;;;;;43.17;21.20;;;;;;;5.83;100.00;100068.25;4893922;58;1142794;-73
2024/03/04 05:35:07;;;;;;;38.20;20.82;;;;;;;5.78;100.00;100078.23;4855735;58;1142730;-73
2024/03/04 05:40:14;;;;;;;39.43;21.30;;;;;;;5.71;100.00;100074.77;4855781;58;1142993;-73
2024/03/04 05:45:20;;;;;;;39.50;21.97;;;;;;;5.73;100.00;100081.61;4903527;57;1143255;-74
2024/03/04 05:50:26;;;;;;;35.20;19.33;;;;;;;5.65;100.00;100089.14;4955100;57;1141072;-71
2024/03/04 05:55:32;;;;;;;37.20;20.67;;;;;;;5.59;100.00;100092.15;4934258;57;1140916;-73
2024/03/04 06:00:37;;;;;;;39.23;21.17;;;;;;;5.58;100.00;100090.47;4975847;57;1142639;-74
2024/03/04 06:05:43;;;;;;;45.30;21.07;;;;;;;5.58;100.00;100097.02;5023395;57;1142649;-71
2024/03/04 06:10:49;;;;;;;29.23;17.77;;;;;;;5.54;100.00;100100.30;5026238;57;1141220;-73
2024/03/04 06:15:54;;;;;;;41.60;20.80;;;;;;;5.49;100.00;100101.55;5041236;57;1141236;-70
2024/03/04 06:21:00;;;;;;;43.83;20.10;;;;;;;5.47;100.00;100108.20;5060727;57;1143500;-72
2024/03/04 06:26:09;;;;;;;30.10;16.60;;;;;;;5.48;100.00;100115.60;5021699;57;1143271;-72
2024/03/04 06:31:13;;;;;;;38.07;21.57;;;;;;;5.57;100.00;100120.25;5033534;57;1143265;-69
2024/03/04 06:36:19;;;;;;;35.90;21.07;;;;;;;5.58;100.00;100123.25;5050636;57;1140852;-72
2024/03/04 06:41:24;;;;;;;34.63;18.23;;;;;;;5.67;100.00;100129.22;5029567;57;1142676;-71
2024/03/04 06:46:33;;;;;;;35.58;18.98;;;;;;;5.70;100.00;100130.81;4950490;57;1142967;-73
2024/03/04 06:51:38;;;;;;;43.10;22.13;;;;;;;5.77;100.00;100145.23;4963208;57;1142988;-69
2024/03/04 06:56:44;;;;;;;40.28;21.23;;;;;;;5.83;100.00;100143.52;4944277;56;1140898;-71
2024/03/04 07:01:49;;;;;;;26.70;15.33;;;;;;;5.90;100.00;100151.41;4982677;57;1140815;-72
2024/03/04 07:06:55;;;;;;;35.17;16.50;;;;;;;5.98;100.00;100149.13;4943471;57;1142841;-72
2024/03/04 07:12:00;;;;;;;31.27;17.20;;;;;;;6.03;100.00;100158.87;4976122;57;1143116;-69
2024/03/04 07:17:06;;;;;;;43.37;18.47;;;;;;;6.15;100.00;100148.87;4962196;57;1143147;-70
2024/03/04 07:22:11;;;;;;;33.33;16.53;;;;;;;6.24;100.00;100156.64;4962746;57;1140597;-72
2024/03/04 07:27:17;;;;;;;31.83;16.57;;;;;;;6.25;100.00;100152.61;4982244;57;1142932;-74
2024/03/04 07:32:23;;;;;;;31.53;15.37;;;;;;;6.29;100.00;100159.78;4962512;57;1142976;-72
2024/03/04 07:37:28;;;;;;;33.33;15.07;;;;;;;6.38;100.00;100163.14;4963065;57;1143033;-71
2024/03/04 07:42:34;;;;;;;35.83;16.30;;;;;;;6.62;100.00;100167.22;4982619;57;1144916;-71
2024/03/04 07:47:39;;;;;;;31.07;15.60;;;;;;;6.79;100.00;100159.52;4963484;57;1140889;-74
2024/03/04 07:52:47;;;;;;;34.87;17.13;;;;;;;6.94;100.00;100161.95;4961299;57;1142685;-74
2024/03/04 07:57:52;;;;;;;28.95;15.48;;;;;;;7.03;100.00;100170.52;4966714;57;1143330;-71
2024/03/04 08:02:57;;;;;;;36.73;17.23;;;;;;;7.04;100.00;100162.16;4986132;57;1141036;-69
2024/03/04 08:08:04;;;;;;;30.73;16.07;;;;;;;7.12;100.00;100172.16;4932370;58;1143375;-72
2024/03/04 08:13:09;;;;;;;34.40;16.50;;;;;;;7.20;100.00;100169.83;4890926;58;1142800;-75
2024/03/04 08:18:15;;;;;;;32.33;17.57;;;;;;;7.18;100.00;100179.64;4910494;58;1140643;-73
2024/03/04 08:23:22;;;;;;;34.80;17.77;;;;;;;7.22;100.00;100185.87;4890594;58;1142858;-70
2024/03/04 08:28:28;;;;;;;28.87;18.63;;;;;;;7.23;100.00;100179.67;4890859;58;1142986;-73
2024/03/04 08:33:35;;;;;;;31.87;19.77;;;;;;;7.23;100.00;100191.52;4927711;58;1142938;-70
2024/03/04 08:38:40;;;;;;;35.30;18.87;;;;;;;7.33;100.00;100187.28;4889618;59;1143026;-72
2024/03/04 08:43:47;;;;;;;33.63;17.50;;;;;;;7.52;100.00;100189.48;4970018;58;1143320;-70
2024/03/04 08:48:53;;;;;;;27.97;18.73;;;;;;;7.79;100.00;100193.77;4888479;59;1143500;-74
2024/03/04 08:53:58;;;;;;;33.40;19.67;;;;;;;7.74;100.00;100203.30;4989140;58;1142736;-74
2024/03/04 08:59:04;;;;;;;31.43;17.07;;;;;;;7.75;100.00;100204.98;4889128;59;1143015;-74
2024/03/04 09:04:09;;;;;;;31.87;18.57;;;;;;;7.76;100.00;100209.30;4956715;58;1143138;-72
2024/03/04 09:09:15;;;;;;;33.20;17.67;;;;;;;7.78;100.00;100210.52;4929641;58;1143218;-73
2024/03/04 09:14:21;;;;;;;37.77;18.60;;;;;;;7.74;100.00;100221.25;4910081;58;1142845;-73
2024/03/04 09:19:27;;;;;;;32.90;17.43;;;;;;;7.64;100.00;100214.93;4882043;58;1143133;-75
2024/03/04 09:24:32;;;;;;;33.93;18.33;;;;;;;7.55;100.00;100225.27;4945260;59;1142644;-75
2024/03/04 09:29:38;;;;;;;38.10;18.43;;;;;;;7.46;100.00;100216.23;5002812;58;1142891;-74
2024/03/04 09:34:43;;;;;;;32.57;16.57;;;;;;;7.41;100.00;100215.23;4895158;59;1142789;-72
2024/03/04 09:39:49;;;;;;;32.03;15.70;;;;;;;7.41;100.00;100222.28;4969591;58;1142719;-69
2024/03/04 09:44:55;;;;;;;33.53;17.87;;;;;;;7.51;100.00;100213.27;4947419;59;1150395;-75
2024/03/04 09:50:01;;;;;;;41.00;18.93;;;;;;;7.61;100.00;100219.59;4938238;58;1142771;-71
2024/03/04 09:55:08;;;;;;;43.33;20.90;;;;;;;7.70;100.00;100217.14;4890407;59;1143785;-74
2024/03/04 10:00:14;;;;;;;34.33;18.53;;;;;;;7.84;100.00;100223.22;4940258;58;1143031;-70
2024/03/04 10:05:20;;;;;;;42.17;20.50;;;;;;;7.99;100.00;100228.23;4969422;58;1142790;-73
2024/03/04 10:10:26;;;;;;;45.27;20.70;;;;;;;8.14;100.00;100228.92;4902133;57;1143018;-72
2024/03/04 10:15:32;;;;;;;36.33;19.27;;;;;;;8.26;100.00;100225.88;4935242;58;1142793;-73
2024/03/04 10:20:38;;;;;;;41.67;20.97;;;;;;;8.43;100.00;100224.20;4919382;58;1142731;-73
2024/03/04 10:25:43;;;;;;;38.47;20.03;;;;;;;8.58;100.00;100216.48;4958587;58;1142549;-73
2024/03/04 10:30:49;;;;;;;38.20;18.77;;;;;;;8.70;100.00;100234.05;4976629;59;1143109;-74
2024/03/04 10:35:59;;;;;;;41.58;20.20;;;;;;;8.84;100.00;100225.11;5059109;58;1142946;-74
2024/03/04 10:41:05;;;;;;;35.53;20.87;;;;;;;9.02;100.00;100218.89;4956250;57;1143010;-73
2024/03/04 10:46:10;;;;;;;35.25;19.37;;;;;;;9.13;100.00;100221.59;4877286;59;1142701;-74
2024/03/04 10:51:17;;;;;;;34.78;20.85;;;;;;;9.34;100.00;100217.28;4936337;58;1142917;-72
2024/03/04 10:56:24;;;;;;;36.20;18.27;;;;;;;9.53;100.00;100213.58;4916777;58;1142682;-73
2024/03/04 11:01:33;;;;;;;36.90;19.30;;;;;;;9.66;100.00;100208.66;4959107;58;1142865;-75
2024/03/04 11:06:40;;;;;;;40.63;20.65;;;;;;;9.68;100.00;100208.05;5016863;56;1143084;-71
2024/03/04 11:11:50;;;;;;;36.67;22.13;;;;;;;9.61;100.00;100202.44;4934549;58;1142900;-70
2024/03/04 11:17:09;;;;;;;38.90;23.77;;;;;;;9.76;100.00;100205.66;4932212;57;1143283;-75
2024/03/04 11:22:16;;;;;;;43.70;23.17;;;;;;;9.96;100.00;100199.61;4972838;57;1142682;-71
2024/03/04 11:27:22;;;;;;;46.00;21.40;;;;;;;10.11;100.00;100209.43;4988192;57;1142919;-76
2024/03/04 11:32:29;;;;;;;39.75;20.80;;;;;;;10.08;100.00;100207.06;4942181;57;1144695;-74
2024/03/04 11:37:52;;;;;;;39.05;20.25;;;;;;;10.14;100.00;100212.67;4943187;57;1144854;-74
2024/03/04 11:42:58;;;;;;;44.90;23.15;;;;;;;10.21;100.00;100215.23;4902658;57;1144947;-71
2024/03/04 11:48:07;;;;;;;41.07;21.47;;;;;;;10.21;100.00;100208.62;4928364;58;1144837;-73
2024/03/04 11:53:28;;;;;;;37.00;20.97;;;;;;;10.16;100.00;100210.75;4925822;58;1144748;-73
2024/03/04 11:58:34;;;;;;;36.28;21.27;;;;;;;10.31;100.00;100194.64;4933766;58;1144909;-73
2024/03/04 12:03:52;;;;;;;36.37;19.47;;;;;;;10.31;100.00;100194.64;4974545;57;1144878;-72
2024/03/04 12:08:58;;;;;;;40.45;19.25;;;;;;;10.55;100.00;100204.52;4907984;58;1144754;-75
2024/03/04 12:14:04;;;;;;;35.25;19.30;;;;;;;10.52;100.00;100206.95;4933651;58;1145088;-72
2024/03/04 12:19:09;;;;;;;36.17;19.07;;;;;;;10.43;100.00;100209.50;4940616;58;1144909;-72
2024/03/04 12:24:22;;;;;;;33.93;19.70;;;;;;;10.28;100.00;100207.63;4940071;58;1144938;-71
2024/03/04 12:29:27;;;;;;;36.20;18.40;;;;;;;10.34;100.00;100212.42;4941487;58;1145138;-72
2024/03/04 12:34:33;;;;;;;32.60;18.07;;;;;;;10.40;100.00;100219.84;4966144;57;1144996;-73
2024/03/04 12:39:38;;;;;;;35.35;18.32;;;;;;;10.37;100.00;100225.39;4916488;58;1144981;-73
2024/03/04 12:44:44;;;;;;;38.23;20.70;;;;;;;10.39;100.00;100224.77;4881705;58;1145048;-73
2024/03/04 12:49:50;;;;;;;35.43;21.63;;;;;;;10.41;100.00;100223.32;4882309;58;1145208;-74
2024/03/04 12:54:55;;;;;;;40.30;21.60;;;;;;;10.32;100.00;100228.89;4900836;58;1145060;-70
2024/03/04 13:00:01;;;;;;;30.73;16.43;;;;;;;10.24;100.00;100226.00;4888777;58;1144849;-73
2024/03/04 13:05:07;;;;;;;43.45;16.97;;;;;;;10.23;100.00;100223.03;4954089;57;1145121;-73
2024/03/04 13:10:15;;;;;;;32.67;19.17;;;;;;;10.23;100.00;100222.52;4908340;57;1144829;-75
2024/03/04 13:15:21;;;;;;;42.10;22.40;;;;;;;10.25;100.00;100218.92;4902283;57;1144889;-71
2024/03/04 13:20:27;;;;;;;41.10;23.13;;;;;;;10.22;100.00;100225.31;4934406;57;1145059;-71
2024/03/04 13:25:32;;;;;;;43.23;21.10;;;;;;;10.11;100.00;100226.13;4972032;57;1144786;-73
2024/03/04 13:30:38;;;;;;;40.25;20.65;;;;;;;10.07;100.00;100231.80;4931332;57;1144804;-73
2024/03/04 13:35:43;;;;;;;35.63;20.23;;;;;;;10.08;100.00;100229.52;4901591;58;1145301;-70
2024/03/04 13:40:49;;;;;;;39.03;19.73;;;;;;;10.06;100.00;100227.48;4924725;57;1145259;-73
2024/03/04 13:45:55;;;;;;;33.73;18.07;;;;;;;9.93;100.00;100236.03;4938745;58;1144775;-70
2024/03/04 13:51:01;;;;;;;27.67;16.80;;;;;;;9.88;100.00;100232.42;4934858;57;1142936;-70
2024/03/04 13:56:07;;;;;;;35.67;18.83;;;;;;;9.83;100.00;100230.13;4907773;57;1149749;-73
2024/03/04 14:01:13;;;;;;;38.37;21.00;;;;;;;9.75;100.00;100232.55;4958674;58;1143048;-70
2024/03/04 14:06:18;;;;;;;39.23;16.93;;;;;;;9.66;100.00;100245.14;4932406;58;1143372;-74
2024/03/04 14:11:25;;;;;;;30.77;18.03;;;;;;;9.60;100.00;100235.08;4994463;57;1142939;-74
2024/03/04 14:16:31;;;;;;;31.77;18.83;;;;;;;9.59;100.00;100231.23;4984763;58;1142688;-70
2024/03/04 14:21:37;;;;;;;23.70;15.47;;;;;;;9.52;100.00;100246.22;4964012;58;1143011;-72
2024/03/04 14:26:42;;;;;;;30.25;18.05;;;;;;;9.51;100.00;100243.69;4991780;57;1142831;-75
2024/03/04 14:31:51;;;;;;;32.76;18.32;;;;;;;9.45;100.00;100243.70;4993389;57;1143129;-71
2024/03/04 14:36:57;;;;;;;37.27;20.20;;;;;;;9.40;100.00;100252.92;4886438;58;1142962;-72
2024/03/04 14:42:03;;;;;;;34.77;20.23;;;;;;;9.39;100.00;100247.28;4864810;57;1142893;-73
2024/03/04 14:47:09;;;;;;;34.67;19.87;;;;;;;9.39;100.00;100253.41;4884247;57;1143024;-70
2024/03/04 14:52:14;;;;;;;36.00;20.07;;;;;;;9.31;100.00;100259.77;4907806;57;1142825;-71
2024/03/04 14:57:20;;;;;;;40.17;21.33;;;;;;;9.28;100.00;100252.08;4883837;57;1143163;-70
2024/03/04 15:02:26;;;;;;;45.53;28.03;;;;;;;9.24;100.00;100250.63;4878171;57;1142943;-70
2024/03/04 15:07:31;;;;;;;50.27;26.90;;;;;;;9.24;100.00;100264.30;4889389;58;1143301;-70
2024/03/04 15:12:39;;;;;;;39.53;25.80;;;;;;;9.19;100.00;100267.27;4919024;58;1143080;-73
2024/03/04 15:17:46;;;;;;;39.50;24.12;;;;;;;9.15;100.00;100268.00;4933972;57;1143110;-72
2024/03/04 15:22:52;;;;;;;49.73;26.67;;;;;;;9.14;100.00;100271.59;4951816;57;1143162;-71
2024/03/04 15:27:58;;;;;;;43.28;22.32;;;;;;;9.12;100.00;100281.42;5026235;57;1142945;-71
2024/03/04 15:33:04;;;;;;;42.13;24.03;;;;;;;9.10;100.00;100283.33;4921414;58;1142944;-72
2024/03/04 15:38:10;;;;;;;82.15;41.28;;;;;;;8.99;100.00;100282.46;4990972;57;1142704;-71
2024/03/04 15:43:15;;;;;;;333.35;138.90;;;;;;;8.89;100.00;100279.65;4961322;57;1142995;-72
2024/03/04 15:48:21;;;;;;;393.10;156.03;;;;;;;8.80;100.00;100291.73;4924434;57;1146990;-71
2024/03/04 15:53:26;;;;;;;127.57;66.33;;;;;;;8.71;100.00;100288.44;4899341;58;1147057;-70
2024/03/04 15:58:32;;;;;;;73.50;35.60;;;;;;;8.64;100.00;100300.41;4942006;57;1145772;-70
2024/03/04 16:03:37;;;;;;;52.50;28.13;;;;;;;8.59;100.00;100305.16;4970095;57;1142779;-71
2024/03/04 16:08:43;;;;;;;48.63;26.13;;;;;;;8.58;100.00;100302.63;4963216;57;1142747;-69
2024/03/04 16:13:49;;;;;;;122.47;54.73;;;;;;;8.58;100.00;100311.86;5057710;56;1143163;-71
2024/03/04 16:18:55;;;;;;;84.83;39.00;;;;;;;8.52;100.00;100321.06;4899224;57;1144999;-70
2024/03/04 16:24:01;;;;;;;72.23;29.47;;;;;;;8.41;100.00;100323.61;5068347;56;1142667;-71
2024/03/04 16:29:06;;;;;;;69.80;29.17;;;;;;;8.37;100.00;100327.44;5141028;57;1142896;-70
2024/03/04 16:34:13;;;;;;;43.67;22.93;;;;;;;8.26;100.00;100329.47;4908660;57;1158222;-71
2024/03/04 16:39:18;;;;;;;48.97;23.67;;;;;;;8.23;100.00;100336.30;4810467;58;1144067;-71
2024/03/04 16:44:24;;;;;;;39.67;22.13;;;;;;;8.21;100.00;100342.14;4790129;59;1260364;-69
2024/03/04 16:49:30;;;;;;;39.17;21.17;;;;;;;8.13;100.00;100346.63;4824540;58;1225935;-68
2024/03/04 16:54:35;;;;;;;44.27;22.23;;;;;;;8.08;100.00;100342.17;4739629;59;1224176;-70
2024/03/04 16:59:41;;;;;;;36.00;21.23;;;;;;;7.97;100.00;100352.59;4859276;58;1238914;-70
2024/03/04 17:04:48;;;;;;;42.47;21.13;;;;;;;7.92;100.00;100362.62;4926607;59;1233614;-72
2024/03/04 17:09:54;;;;;;;40.93;20.87;;;;;;;7.92;100.00;100362.62;4874350;59;1143718;-71
2024/03/04 17:15:00;;;;;;;52.20;25.43;;;;;;;7.92;100.00;100368.36;4891252;59;1241196;-71
2024/03/04 17:20:10;;;;;;;39.70;21.73;;;;;;;7.85;100.00;100370.55;4851450;59;1143817;-72
2024/03/04 17:25:15;;;;;;;40.57;20.83;;;;;;;7.82;100.00;100374.71;4852530;58;1240185;-73
2024/03/04 17:30:21;;;;;;;44.97;23.70;;;;;;;7.80;100.00;100376.59;4752099;60;1249410;-69
2024/03/04 17:35:27;;;;;;;40.90;20.43;;;;;;;7.79;100.00;100374.95;4865655;58;1142949;-71
2024/03/04 17:40:35;;;;;;;36.40;21.20;;;;;;;7.82;100.00;100372.55;4866568;59;1249248;-70
2024/03/04 17:45:41;;;;;;;39.00;21.63;;;;;;;7.80;100.00;100383.18;4755033;59;1250045;-70
2024/03/04 17:50:46;;;;;;;38.83;19.53;;;;;;;7.75;100.00;100388.78;4873975;59;1142905;-71
2024/03/04 17:55:52;;;;;;;45.37;24.03;;;;;;;7.73;100.00;100393.30;4738402;60;1143112;-73
2024/03/04 18:00:57;;;;;;;41.77;20.87;;;;;;;7.74;100.00;100394.15;4666048;60;1143123;-72
2024/03/04 18:06:04;;;;;;;48.52;23.77;;;;;;;7.73;100.00;100401.67;4789988;58;1215534;-72
2024/03/04 18:11:12;;;;;;;35.93;20.23;;;;;;;7.66;100.00;100407.81;4643950;60;1140966;-70
2024/03/04 18:16:17;;;;;;;37.37;21.33;;;;;;;7.65;100.00;100414.49;4693058;60;1142943;-70
2024/03/04 18:21:23;;;;;;;39.47;20.93;;;;;;;7.60;100.00;100408.72;4846213;58;1143032;-70
2024/03/04 18:26:28;;;;;;;41.20;20.63;;;;;;;7.51;100.00;100415.89;4798517;60;1195717;-70
2024/03/04 18:31:35;;;;;;;41.80;21.23;;;;;;;7.45;100.00;100411.05;4806358;59;1156275;-72
2024/03/04 18:36:40;;;;;;;47.07;22.33;;;;;;;7.31;100.00;100410.66;4878175;59;1142616;-72
2024/03/04 18:41:46;;;;;;;41.20;21.77;;;;;;;7.32;100.00;100418.92;4876106;59;1142611;-71
2024/03/04 18:46:52;;;;;;;48.23;22.00;;;;;;;7.31;100.00;100418.55;4859146;59;1140771;-72
2024/03/04 18:51:57;;;;;;;38.75;18.95;;;;;;;7.34;100.00;100423.58;4808112;59;1142784;-71
2024/03/04 18:57:03;;;;;;;34.67;20.77;;;;;;;7.35;100.00;100422.63;4827042;60;1142998;-69
2024/03/04 19:02:11;;;;;;;42.70;20.72;;;;;;;7.33;100.00;100423.23;4853788;58;1142860;-70
2024/03/04 19:07:16;;;;;;;41.97;20.43;;;;;;;7.29;100.00;100425.22;4883055;59;1141006;-71
2024/03/04 19:12:27;;;;;;;39.23;20.87;;;;;;;7.23;100.00;100426.08;4852692;59;1142753;-71
2024/03/04 19:17:30;;;;;;;55.30;23.40;;;;;;;7.23;100.00;100434.81;4815540;59;1142641;-73
2024/03/04 19:22:35;;;;;;;42.70;21.90;;;;;;;7.19;100.00;100434.63;4799889;59;1140849;-72
2024/03/04 19:27:41;;;;;;;37.20;19.10;;;;;;;7.17;100.00;100429.97;4886530;59;1141208;-72
2024/03/04 19:32:46;;;;;;;43.70;20.40;;;;;;;7.15;100.00;100427.06;4742321;60;1143112;-70
2024/03/04 19:37:53;;;;;;;39.53;20.52;;;;;;;7.17;100.00;100433.91;4833579;59;1143050;-73
2024/03/04 19:42:58;;;;;;;52.50;22.22;;;;;;;7.17;100.00;100429.97;4817553;59;1142991;-73
2024/03/04 19:48:04;;;;;;;47.53;24.40;;;;;;;7.11;100.00;100438.24;4797478;60;1140991;-71
2024/03/04 19:53:10;;;;;;;75.10;33.83;;;;;;;7.13;100.00;100433.73;4824758;59;1143049;-72
2024/03/04 19:58:15;;;;;;;79.20;36.53;;;;;;;7.16;100.00;100442.74;4815412;59;1142787;-70
2024/03/04 20:03:21;;;;;;;47.20;24.43;;;;;;;7.20;100.00;100451.25;4771197;60;1143137;-72
2024/03/04 20:08:30;;;;;;;45.48;22.50;;;;;;;7.20;100.00;100438.95;4864068;58;1140698;-71
2024/03/04 20:13:39;;;;;;;42.60;20.87;;;;;;;7.17;100.00;100440.48;4770851;59;1142888;-73
2024/03/04 20:18:44;;;;;;;43.00;20.97;;;;;;;7.18;100.00;100442.65;4894923;59;1142965;-72
2024/03/04 20:23:50;;;;;;;46.47;21.07;;;;;;;7.14;100.00;100437.20;4830888;59;1142828;-73
2024/03/04 20:28:55;;;;;;;40.15;22.17;;;;;;;7.10;100.00;100436.55;4990625;58;1140870;-72
2024/03/04 20:34:01;;;;;;;51.43;25.37;;;;;;;7.05;100.00;100436.00;4990013;58;1141232;-70
2024/03/04 20:39:07;;;;;;;42.00;21.30;;;;;;;7.06;100.00;100438.53;5042000;58;1140928;-70
2024/03/04 20:44:13;;;;;;;34.63;17.20;;;;;;;7.01;100.00;100438.00;4728013;60;1142795;-71
2024/03/04 20:49:18;;;;;;;41.77;21.37;;;;;;;6.95;100.00;100437.06;4845712;59;1142530;-73
2024/03/04 20:54:24;;;;;;;39.83;19.80;;;;;;;6.93;100.00;100445.52;4793219;59;1143021;-72
2024/03/04 20:59:29;;;;;;;34.33;19.33;;;;;;;6.91;100.00;100443.45;4796802;59;1161956;-69
2024/03/04 21:04:35;;;;;;;37.87;19.97;;;;;;;6.81;100.00;100449.40;4885160;59;1141054;-70
2024/03/04 21:09:41;;;;;;;44.17;21.23;;;;;;;6.75;100.00;100444.52;4819988;59;1143219;-72
2024/03/04 21:14:47;;;;;;;40.70;20.87;;;;;;;6.68;100.00;100450.17;4809583;59;1141242;-72
2024/03/04 21:19:52;;;;;;;49.07;21.97;;;;;;;6.62;100.00;100449.23;4809588;58;1141215;-72
2024/03/04 21:24:58;;;;;;;37.50;20.47;;;;;;;6.52;100.00;100449.91;4815966;59;1140728;-72
2024/03/04 21:30:06;;;;;;;39.93;19.67;;;;;;;6.37;100.00;100453.02;4790232;59;1140788;-72
2024/03/04 21:35:12;;;;;;;44.30;23.03;;;;;;;6.28;100.00;100455.72;4794097;60;1140788;-72
2024/03/04 21:40:18;;;;;;;45.47;21.43;;;;;;;6.26;100.00;100464.15;4814615;60;1149193;-70
2024/03/04 21:45:24;;;;;;;45.08;22.32;;;;;;;6.25;100.00;100459.02;4808840;60;1142637;-72
2024/03/04 21:50:29;;;;;;;46.08;22.42;;;;;;;6.22;100.00;100458.73;4809072;60;1143081;-70
2024/03/04 21:55:35;;;;;;;46.77;22.83;;;;;;;6.21;100.00;100454.41;4828760;59;1143251;-72
2024/03/04 22:00:40;;;;;;;49.83;23.87;;;;;;;6.18;100.00;100451.97;4786043;60;1142639;-70
2024/03/04 22:05:48;;;;;;;50.38;23.12;;;;;;;6.15;100.00;100453.45;4732272;60;1141125;-73
2024/03/04 22:10:53;;;;;;;46.67;25.00;;;;;;;6.07;100.00;100457.03;4728593;60;1140726;-70
2024/03/04 22:16:01;;;;;;;49.97;25.70;;;;;;;5.98;100.00;100447.91;4866414;59;1140950;-72
2024/03/04 22:21:08;;;;;;;51.80;24.13;;;;;;;5.97;100.00;100454.55;4812760;58;1140763;-70
2024/03/04 22:26:14;;;;;;;51.42;23.73;;;;;;;5.90;100.00;100452.78;4815757;59;1140633;-70
2024/03/04 22:31:19;;;;;;;46.95;24.63;;;;;;;5.85;100.00;100459.19;4730511;60;1140843;-73
2024/03/04 22:36:25;;;;;;;50.92;23.60;;;;;;;5.81;100.00;100455.05;4808886;59;1140807;-72
2024/03/04 22:41:31;;;;;;;48.43;24.13;;;;;;;5.84;100.00;100459.66;4704210;61;1143049;-72